East Irvington, New York
Current Conditions -  °F | °C
As of 9:56 PM on Friday 21 Nov 2014 (Local Time) from KHPN Reporting Station
Clear Clear  
Wind Chill: 19°   Ceiling: Unl
Heat Index: 25°   Visibility: 10mi
Dew Point:   Wind: 5mph
Humidity: 51%   Direction: 270°W
Pressure: 30.46"   Gusts: NA
Location:  41.0402°N, 73.8532°W
Report Text: KHPN 220256Z 27004KT 10SM CLR M04/M13 A3046 RMK AO2 SLP327 T10391128 51010
Loading
Personal Weather Stations






























Interactive Weather Map New forecast layout! Learn more

10-Day Weather Forecast

Advertisements
Track Severe Weather on mobile